sensor_id;sensor_type;location;lat;lon;timestamp;pressure;altitude;pressure_sealevel;temperature;humidity
12969;BME280;6549;53.128;8.182;2022-09-01T00:01:01;102146.81;;;14.26;100.00
12969;BME280;6549;53.128;8.182;2022-09-01T00:04:02;102144.06;;;14.29;100.00
12969;BME280;6549;53.128;8.182;2022-09-01T00:07:05;102147.13;;;14.21;100.00
12969;BME280;6549;53.128;8.182;2022-09-01T00:10:07;102143.13;;;14.15;100.00
12969;BME280;6549;53.128;8.182;2022-09-01T00:13:11;102138.31;;;14.12;100.00
12969;BME280;6549;53.128;8.182;2022-09-01T00:16:13;102139.03;;;14.05;100.00
12969;BME280;6549;53.128;8.182;2022-09-01T00:19:14;102134.66;;;14.01;100.00
12969;BME280;6549;53.128;8.182;2022-09-01T00:22:15;102141.66;;;13.94;100.00
12969;BME280;6549;53.128;8.182;2022-09-01T00:25:19;102133.28;;;13.87;100.00
12969;BME280;6549;53.128;8.182;2022-09-01T00:28:19;102133.72;;;13.89;100.00
12969;BME280;6549;53.128;8.182;2022-09-01T00:31:20;102135.16;;;13.80;100.00
12969;BME280;6549;53.128;8.182;2022-09-01T00:34:20;102130.72;;;13.72;100.00
12969;BME280;6549;53.128;8.182;2022-09-01T00:37:21;102136.56;;;13.67;100.00
12969;BME280;6549;53.128;8.182;2022-09-01T00:40:21;102140.44;;;13.62;100.00
12969;BME280;6549;53.128;8.182;2022-09-01T00:43:36;102141.25;;;13.63;100.00
12969;BME280;6549;53.128;8.182;2022-09-01T00:46:44;102139.97;;;13.57;100.00
12969;BME280;6549;53.128;8.182;2022-09-01T00:49:47;102143.84;;;13.52;100.00
12969;BME280;6549;53.128;8.182;2022-09-01T00:52:50;102139.78;;;13.46;100.00
12969;BME280;6549;53.128;8.182;2022-09-01T00:55:52;102136.19;;;13.42;100.00
12969;BME280;6549;53.128;8.182;2022-09-01T00:58:53;102136.50;;;13.37;100.00
12969;BME280;6549;53.128;8.182;2022-09-01T01:01:55;102143.50;;;13.31;100.00
12969;BME280;6549;53.128;8.182;2022-09-01T01:04:56;102143.81;;;13.26;100.00
12969;BME280;6549;53.128;8.182;2022-09-01T01:07:59;102134.28;;;13.23;100.00
12969;BME280;6549;53.128;8.182;2022-09-01T01:11:13;102138.19;;;13.19;100.00
12969;BME280;6549;53.128;8.182;2022-09-01T01:14:17;102136.22;;;13.19;100.00
12969;BME280;6549;53.128;8.182;2022-09-01T01:17:20;102134.56;;;13.15;100.00
12969;BME280;6549;53.128;8.182;2022-09-01T01:20:25;102135.03;;;13.20;100.00
12969;BME280;6549;53.128;8.182;2022-09-01T01:23:53;102137.84;;;13.24;100.00
12969;BME280;6549;53.128;8.182;2022-09-01T01:26:56;102133.94;;;13.25;100.00
12969;BME280;6549;53.128;8.182;2022-09-01T01:30:03;102134.78;;;13.29;100.00
12969;BME280;6549;53.128;8.182;2022-09-01T01:33:04;102130.13;;;13.33;100.00
12969;BME280;6549;53.128;8.182;2022-09-01T01:36:05;102135.06;;;13.46;100.00
12969;BME280;6549;53.128;8.182;2022-09-01T01:39:10;102130.34;;;13.47;100.00
12969;BME280;6549;53.128;8.182;2022-09-01T01:42:11;102143.88;;;13.56;100.00
12969;BME280;6549;53.128;8.182;2022-09-01T01:45:13;102128.16;;;13.60;100.00
12969;BME280;6549;53.128;8.182;2022-09-01T01:48:17;102136.94;;;13.65;100.00
12969;BME280;6549;53.128;8.182;2022-09-01T01:51:22;102137.78;;;13.69;100.00
12969;BME280;6549;53.128;8.182;2022-09-01T01:54:28;102132.34;;;13.76;100.00
12969;BME280;6549;53.128;8.182;2022-09-01T01:57:31;102131.09;;;14.00;100.00
12969;BME280;6549;53.128;8.182;2022-09-01T02:00:32;102131.69;;;13.86;100.00
12969;BME280;6549;53.128;8.182;2022-09-01T02:03:33;102138.78;;;13.84;100.00
12969;BME280;6549;53.128;8.182;2022-09-01T02:06:37;102133.25;;;13.84;100.00
12969;BME280;6549;53.128;8.182;2022-09-01T02:09:44;102137.38;;;13.97;100.00
12969;BME280;6549;53.128;8.182;2022-09-01T02:12:47;102135.28;;;13.90;100.00
12969;BME280;6549;53.128;8.182;2022-09-01T02:15:51;102133.72;;;13.89;100.00
12969;BME280;6549;53.128;8.182;2022-09-01T02:18:53;102141.56;;;13.87;100.00
12969;BME280;6549;53.128;8.182;2022-09-01T02:21:53;102141.78;;;14.02;100.00
12969;BME280;6549;53.128;8.182;2022-09-01T02:24:55;102133.84;;;14.00;100.00
12969;BME280;6549;53.128;8.182;2022-09-01T02:27:56;102138.63;;;14.03;100.00
12969;BME280;6549;53.128;8.182;2022-09-01T02:30:57;102138.25;;;14.05;100.00
12969;BME280;6549;53.128;8.182;2022-09-01T02:33:58;102138.28;;;14.08;100.00
12969;BME280;6549;53.128;8.182;2022-09-01T02:37:00;102139.84;;;14.06;100.00
12969;BME280;6549;53.128;8.182;2022-09-01T02:40:00;102130.72;;;14.02;100.00
12969;BME280;6549;53.128;8.182;2022-09-01T02:43:01;102139.09;;;14.09;100.00
12969;BME280;6549;53.128;8.182;2022-09-01T02:46:01;102129.97;;;14.05;100.00
12969;BME280;6549;53.128;8.182;2022-09-01T02:49:01;102126.34;;;14.01;100.00
12969;BME280;6549;53.128;8.182;2022-09-01T02:52:03;102129.41;;;13.92;100.00
12969;BME280;6549;53.128;8.182;2022-09-01T02:55:04;102126.56;;;13.85;100.00
12969;BME280;6549;53.128;8.182;2022-09-01T02:58:05;102123.72;;;13.81;100.00
12969;BME280;6549;53.128;8.182;2022-09-01T03:01:16;102118.19;;;13.81;100.00
12969;BME280;6549;53.128;8.182;2022-09-01T03:04:20;102116.63;;;13.80;100.00
12969;BME280;6549;53.128;8.182;2022-09-01T03:07:21;102117.34;;;13.77;100.00
12969;BME280;6549;53.128;8.182;2022-09-01T03:10:27;102117.78;;;13.79;100.00
12969;BME280;6549;53.128;8.182;2022-09-01T03:13:31;102113.75;;;13.73;100.00
12969;BME280;6549;53.128;8.182;2022-09-01T03:16:32;102114.81;;;13.65;100.00
12969;BME280;6549;53.128;8.182;2022-09-01T03:19:32;102115.59;;;13.62;100.00
12969;BME280;6549;53.128;8.182;2022-09-01T03:22:43;102121.47;;;13.61;100.00
12969;BME280;6549;53.128;8.182;2022-09-01T03:25:44;102120.13;;;13.77;100.00
12969;BME280;6549;53.128;8.182;2022-09-01T03:28:45;102111.41;;;13.75;100.00
12969;BME280;6549;53.128;8.182;2022-09-01T03:31:46;102117.69;;;13.72;100.00
12969;BME280;6549;53.128;8.182;2022-09-01T03:34:47;102118.75;;;13.64;100.00
12969;BME280;6549;53.128;8.182;2022-09-01T03:37:47;102125.41;;;13.60;100.00
12969;BME280;6549;53.128;8.182;2022-09-01T03:40:49;102115.78;;;13.50;100.00
12969;BME280;6549;53.128;8.182;2022-09-01T03:43:51;102107.09;;;13.48;100.00
12969;BME280;6549;53.128;8.182;2022-09-01T03:46:55;102112.94;;;13.43;100.00
12969;BME280;6549;53.128;8.182;2022-09-01T03:49:57;102115.63;;;13.39;100.00
12969;BME280;6549;53.128;8.182;2022-09-01T03:52:58;102106.56;;;13.39;100.00
12969;BME280;6549;53.128;8.182;2022-09-01T03:56:00;102106.50;;;13.35;100.00
12969;BME280;6549;53.128;8.182;2022-09-01T03:59:03;102102.94;;;13.35;100.00
12969;BME280;6549;53.128;8.182;2022-09-01T04:02:03;102106.03;;;13.30;100.00
12969;BME280;6549;53.128;8.182;2022-09-01T04:05:04;102103.53;;;13.21;100.00
12969;BME280;6549;53.128;8.182;2022-09-01T04:08:07;102107.41;;;13.17;100.00
12969;BME280;6549;53.128;8.182;2022-09-01T04:11:15;102100.72;;;13.18;100.00
12969;BME280;6549;53.128;8.182;2022-09-01T04:14:17;102095.91;;;13.15;100.00
12969;BME280;6549;53.128;8.182;2022-09-01T04:17:18;102103.03;;;13.16;100.00
12969;BME280;6549;53.128;8.182;2022-09-01T04:20:53;102104.28;;;13.18;100.00
12969;BME280;6549;53.128;8.182;2022-09-01T04:23:55;102103.53;;;13.21;100.00
12969;BME280;6549;53.128;8.182;2022-09-01T04:27:04;102101.88;;;13.17;100.00
12969;BME280;6549;53.128;8.182;2022-09-01T04:30:08;102103.78;;;13.13;100.00
12969;BME280;6549;53.128;8.182;2022-09-01T04:33:10;102108.56;;;13.16;100.00
12969;BME280;6549;53.128;8.182;2022-09-01T04:36:25;102110.16;;;13.17;100.00
12969;BME280;6549;53.128;8.182;2022-09-01T04:39:26;102114.06;;;13.16;100.00
12969;BME280;6549;53.128;8.182;2022-09-01T04:42:29;102113.66;;;13.14;100.00
12969;BME280;6549;53.128;8.182;2022-09-01T04:45:34;102106.66;;;13.20;100.00
12969;BME280;6549;53.128;8.182;2022-09-01T04:48:35;102110.97;;;13.17;100.00
12969;BME280;6549;53.128;8.182;2022-09-01T04:51:43;102106.78;;;13.27;100.00
12969;BME280;6549;53.128;8.182;2022-09-01T04:54:46;102111.81;;;13.21;100.00
12969;BME280;6549;53.128;8.182;2022-09-01T04:57:48;102116.63;;;13.28;100.00
12969;BME280;6549;53.128;8.182;2022-09-01T05:00:49;102110.69;;;13.26;100.00
12969;BME280;6549;53.128;8.182;2022-09-01T05:03:54;102116.50;;;13.43;100.00
12969;BME280;6549;53.128;8.182;2022-09-01T05:07:03;102118.75;;;13.38;100.00
12969;BME280;6549;53.128;8.182;2022-09-01T05:10:04;102119.19;;;13.40;100.00
12969;BME280;6549;53.128;8.182;2022-09-01T05:13:06;102118.50;;;13.46;100.00
12969;BME280;6549;53.128;8.182;2022-09-01T05:16:11;102116.53;;;13.47;100.00
12969;BME280;6549;53.128;8.182;2022-09-01T05:19:14;102111.44;;;13.49;100.00
12969;BME280;6549;53.128;8.182;2022-09-01T05:22:15;102107.19;;;13.55;100.00
12969;BME280;6549;53.128;8.182;2022-09-01T05:25:17;102118.66;;;13.57;100.00
12969;BME280;6549;53.128;8.182;2022-09-01T05:28:18;102119.06;;;13.59;100.00
12969;BME280;6549;53.128;8.182;2022-09-01T05:31:19;102103.41;;;13.67;100.00
12969;BME280;6549;53.128;8.182;2022-09-01T05:34:20;102109.38;;;13.72;100.00
12969;BME280;6549;53.128;8.182;2022-09-01T05:37:25;102116.75;;;13.91;100.00
12969;BME280;6549;53.128;8.182;2022-09-01T05:40:28;102114.78;;;13.91;100.00
12969;BME280;6549;53.128;8.182;2022-09-01T05:43:30;102120.13;;;14.07;100.00
12969;BME280;6549;53.128;8.182;2022-09-01T05:46:31;102112.47;;;13.93;100.00
12969;BME280;6549;53.128;8.182;2022-09-01T05:49:32;102103.78;;;13.95;100.00
12969;BME280;6549;53.128;8.182;2022-09-01T05:52:35;102117.06;;;14.16;100.00
12969;BME280;6549;53.128;8.182;2022-09-01T05:55:37;102117.59;;;14.25;100.00
12969;BME280;6549;53.128;8.182;2022-09-01T05:58:38;102119.94;;;14.26;100.00
12969;BME280;6549;53.128;8.182;2022-09-01T06:01:39;102121.28;;;14.36;100.00
12969;BME280;6549;53.128;8.182;2022-09-01T06:04:40;102121.22;;;14.32;100.00
12969;BME280;6549;53.128;8.182;2022-09-01T06:07:41;102117.63;;;14.28;100.00
12969;BME280;6549;53.128;8.182;2022-09-01T06:10:41;102128.50;;;14.48;100.00
12969;BME280;6549;53.128;8.182;2022-09-01T06:13:44;102121.41;;;14.47;100.00
12969;BME280;6549;53.128;8.182;2022-09-01T06:16:46;102129.28;;;14.45;100.00
12969;BME280;6549;53.128;8.182;2022-09-01T06:19:46;102131.88;;;14.67;100.00
12969;BME280;6549;53.128;8.182;2022-09-01T06:22:47;102125.38;;;14.90;100.00
12969;BME280;6549;53.128;8.182;2022-09-01T06:25:47;102121.78;;;14.86;100.00
12969;BME280;6549;53.128;8.182;2022-09-01T06:28:48;102134.50;;;14.94;100.00
12969;BME280;6549;53.128;8.182;2022-09-01T06:31:54;102129.09;;;15.08;100.00
12969;BME280;6549;53.128;8.182;2022-09-01T06:34:55;102132.66;;;15.08;100.00
12969;BME280;6549;53.128;8.182;2022-09-01T06:37:58;102128.06;;;15.26;100.00
12969;BME280;6549;53.128;8.182;2022-09-01T06:41:03;102132.91;;;15.40;100.00
12969;BME280;6549;53.128;8.182;2022-09-01T06:44:04;102140.09;;;15.48;100.00
12969;BME280;6549;53.128;8.182;2022-09-01T06:47:04;102146.28;;;15.86;100.00
12969;BME280;6549;53.128;8.182;2022-09-01T06:50:05;102152.63;;;15.86;100.00
12969;BME280;6549;53.128;8.182;2022-09-01T06:53:08;102151.47;;;15.94;100.00
12969;BME280;6549;53.128;8.182;2022-09-01T06:56:14;102151.25;;;16.38;100.00
12969;BME280;6549;53.128;8.182;2022-09-01T06:59:15;102155.78;;;16.89;100.00
12969;BME280;6549;53.128;8.182;2022-09-01T07:02:16;102155.00;;;17.52;100.00
12969;BME280;6549;53.128;8.182;2022-09-01T07:05:19;102160.13;;;17.71;100.00
12969;BME280;6549;53.128;8.182;2022-09-01T07:08:20;102154.50;;;18.03;100.00
12969;BME280;6549;53.128;8.182;2022-09-01T07:11:26;102160.69;;;18.42;100.00
12969;BME280;6549;53.128;8.182;2022-09-01T07:14:27;102165.09;;;18.36;100.00
12969;BME280;6549;53.128;8.182;2022-09-01T07:17:27;102163.03;;;18.58;96.18
12969;BME280;6549;53.128;8.182;2022-09-01T07:20:29;102165.94;;;18.96;92.68
12969;BME280;6549;53.128;8.182;2022-09-01T07:23:31;102167.38;;;19.18;91.70
12969;BME280;6549;53.128;8.182;2022-09-01T07:26:32;102165.97;;;18.92;89.28
12969;BME280;6549;53.128;8.182;2022-09-01T07:29:35;102167.16;;;18.95;89.10
12969;BME280;6549;53.128;8.182;2022-09-01T07:32:36;102164.47;;;18.77;89.76
12969;BME280;6549;53.128;8.182;2022-09-01T07:35:39;102168.09;;;19.29;86.43
12969;BME280;6549;53.128;8.182;2022-09-01T07:38:40;102166.47;;;19.32;84.53
12969;BME280;6549;53.128;8.182;2022-09-01T07:41:42;102170.84;;;19.77;82.87
12969;BME280;6549;53.128;8.182;2022-09-01T07:44:42;102172.78;;;19.80;78.49
12969;BME280;6549;53.128;8.182;2022-09-01T07:47:44;102172.03;;;19.76;77.38
12969;BME280;6549;53.128;8.182;2022-09-01T07:50:47;102168.25;;;19.93;77.32
12969;BME280;6549;53.128;8.182;2022-09-01T07:53:48;102177.47;;;19.90;74.06
12969;BME280;6549;53.128;8.182;2022-09-01T07:56:49;102172.16;;;20.03;72.86
12969;BME280;6549;53.128;8.182;2022-09-01T07:59:50;102170.25;;;19.93;73.51
12969;BME280;6549;53.128;8.182;2022-09-01T08:02:52;102168.84;;;20.45;77.70
12969;BME280;6549;53.128;8.182;2022-09-01T08:05:53;102165.72;;;20.70;70.21
12969;BME280;6549;53.128;8.182;2022-09-01T08:08:58;102176.59;;;20.34;70.10
12969;BME280;6549;53.128;8.182;2022-09-01T08:11:58;102175.84;;;20.30;70.08
12969;BME280;6549;53.128;8.182;2022-09-01T08:15:01;102178.41;;;20.48;70.77
12969;BME280;6549;53.128;8.182;2022-09-01T08:18:01;102173.03;;;20.87;68.78
12969;BME280;6549;53.128;8.182;2022-09-01T08:21:09;102174.63;;;20.88;68.40
12969;BME280;6549;53.128;8.182;2022-09-01T08:24:10;102178.16;;;20.66;67.27
12969;BME280;6549;53.128;8.182;2022-09-01T08:27:10;102181.78;;;21.16;65.69
12969;BME280;6549;53.128;8.182;2022-09-01T08:30:11;102182.53;;;21.67;64.72
12969;BME280;6549;53.128;8.182;2022-09-01T08:33:12;102188.19;;;22.06;62.43
12969;BME280;6549;53.128;8.182;2022-09-01T08:36:13;102182.19;;;22.08;60.14
12969;BME280;6549;53.128;8.182;2022-09-01T08:39:14;102179.78;;;22.06;57.31
12969;BME280;6549;53.128;8.182;2022-09-01T08:45:48;102172.88;;;22.50;56.92
12969;BME280;6549;53.128;8.182;2022-09-01T08:48:54;102171.75;;;22.64;54.21
12969;BME280;6549;53.128;8.182;2022-09-01T08:52:12;102166.56;;;22.98;55.39
12969;BME280;6549;53.128;8.182;2022-09-01T08:55:17;102177.88;;;22.78;52.45
12969;BME280;6549;53.128;8.182;2022-09-01T08:58:31;102175.06;;;22.78;52.48
12969;BME280;6549;53.128;8.182;2022-09-01T09:01:41;102176.94;;;23.01;54.03
12969;BME280;6549;53.128;8.182;2022-09-01T09:12:00;102175.38;;;23.49;48.97
12969;BME280;6549;53.128;8.182;2022-09-01T09:18:44;102170.44;;;23.37;48.57
12969;BME280;6549;53.128;8.182;2022-09-01T09:21:50;102164.47;;;23.35;48.50
12969;BME280;6549;53.128;8.182;2022-09-01T09:25:11;102162.09;;;23.65;48.17
12969;BME280;6549;53.128;8.182;2022-09-01T09:28:13;102163.91;;;23.72;47.50
12969;BME280;6549;53.128;8.182;2022-09-01T09:34:39;102156.38;;;23.69;45.82
12969;BME280;6549;53.128;8.182;2022-09-01T09:37:40;102155.22;;;23.95;45.03
12969;BME280;6549;53.128;8.182;2022-09-01T09:41:05;102153.09;;;23.99;43.39
12969;BME280;6549;53.128;8.182;2022-09-01T09:44:26;102152.97;;;23.90;42.53
12969;BME280;6549;53.128;8.182;2022-09-01T09:47:38;102145.13;;;22.92;43.25
12969;BME280;6549;53.128;8.182;2022-09-01T09:50:40;102153.50;;;23.24;42.01
12969;BME280;6549;53.128;8.182;2022-09-01T09:53:43;102149.69;;;23.18;42.27
12969;BME280;6549;53.128;8.182;2022-09-01T09:56:44;102142.91;;;23.48;41.18
12969;BME280;6549;53.128;8.182;2022-09-01T09:59:57;102146.31;;;23.55;41.34
12969;BME280;6549;53.128;8.182;2022-09-01T10:03:08;102139.31;;;23.15;41.76
12969;BME280;6549;53.128;8.182;2022-09-01T10:06:28;102138.69;;;23.40;40.99
12969;BME280;6549;53.128;8.182;2022-09-01T10:15:33;102130.50;;;24.19;39.59
12969;BME280;6549;53.128;8.182;2022-09-01T10:18:40;102133.88;;;23.56;39.72
12969;BME280;6549;53.128;8.182;2022-09-01T10:21:42;102135.47;;;23.99;41.46
12969;BME280;6549;53.128;8.182;2022-09-01T10:24:44;102127.25;;;24.21;37.99
12969;BME280;6549;53.128;8.182;2022-09-01T10:27:49;102130.22;;;24.13;37.65
12969;BME280;6549;53.128;8.182;2022-09-01T10:30:52;102120.53;;;24.43;36.92
12969;BME280;6549;53.128;8.182;2022-09-01T10:33:54;102126.47;;;24.20;37.34
12969;BME280;6549;53.128;8.182;2022-09-01T10:36:54;102125.13;;;23.06;38.86
12969;BME280;6549;53.128;8.182;2022-09-01T10:43:44;102122.66;;;23.40;39.01
12969;BME280;6549;53.128;8.182;2022-09-01T10:46:49;102116.94;;;23.89;39.42
12969;BME280;6549;53.128;8.182;2022-09-01T10:52:55;102115.00;;;23.57;37.95
12969;BME280;6549;53.128;8.182;2022-09-01T10:56:02;102118.72;;;23.95;37.21
12969;BME280;6549;53.128;8.182;2022-09-01T11:02:21;102109.50;;;23.95;37.23
12969;BME280;6549;53.128;8.182;2022-09-01T11:05:22;102108.03;;;23.90;37.37
12969;BME280;6549;53.128;8.182;2022-09-01T11:08:46;102098.91;;;24.15;35.69
12969;BME280;6549;53.128;8.182;2022-09-01T11:15:38;102095.66;;;24.80;34.72
12969;BME280;6549;53.128;8.182;2022-09-01T11:18:39;102102.75;;;24.21;35.61
12969;BME280;6549;53.128;8.182;2022-09-01T11:21:39;102081.78;;;23.97;35.64
12969;BME280;6549;53.128;8.182;2022-09-01T11:34:11;102081.66;;;24.54;36.15
12969;BME280;6549;53.128;8.182;2022-09-01T11:37:14;102088.78;;;25.06;33.65
12969;BME280;6549;53.128;8.182;2022-09-01T11:40:30;102075.00;;;24.74;34.49
12969;BME280;6549;53.128;8.182;2022-09-01T11:43:30;102084.31;;;24.83;34.94
12969;BME280;6549;53.128;8.182;2022-09-01T11:46:33;102074.63;;;24.97;34.00
12969;BME280;6549;53.128;8.182;2022-09-01T11:49:38;102085.13;;;24.21;34.14
12969;BME280;6549;53.128;8.182;2022-09-01T11:52:39;102077.03;;;24.35;34.03
12969;BME280;6549;53.128;8.182;2022-09-01T11:55:43;102069.47;;;24.95;33.81
12969;BME280;6549;53.128;8.182;2022-09-01T11:58:44;102086.66;;;24.85;33.20
12969;BME280;6549;53.128;8.182;2022-09-01T12:01:45;102074.03;;;25.15;32.39
12969;BME280;6549;53.128;8.182;2022-09-01T12:04:45;102069.50;;;24.57;33.63
12969;BME280;6549;53.128;8.182;2022-09-01T12:07:46;102078.28;;;24.47;34.19
12969;BME280;6549;53.128;8.182;2022-09-01T12:10:46;102064.53;;;23.69;34.45
12969;BME280;6549;53.128;8.182;2022-09-01T12:14:06;102055.88;;;24.05;35.10
12969;BME280;6549;53.128;8.182;2022-09-01T12:17:06;102061.88;;;24.45;34.99
12969;BME280;6549;53.128;8.182;2022-09-01T12:20:22;102059.88;;;25.05;33.31
12969;BME280;6549;53.128;8.182;2022-09-01T12:23:28;102051.16;;;25.25;32.39
12969;BME280;6549;53.128;8.182;2022-09-01T12:26:28;102057.91;;;25.62;32.13
12969;BME280;6549;53.128;8.182;2022-09-01T12:29:29;102059.75;;;25.43;31.17
12969;BME280;6549;53.128;8.182;2022-09-01T12:32:31;102054.38;;;25.36;32.85
12969;BME280;6549;53.128;8.182;2022-09-01T12:35:31;102050.34;;;25.03;32.13
12969;BME280;6549;53.128;8.182;2022-09-01T12:38:31;102057.78;;;25.31;32.76
12969;BME280;6549;53.128;8.182;2022-09-01T12:41:38;102061.94;;;25.83;31.37
12969;BME280;6549;53.128;8.182;2022-09-01T12:50:46;102055.25;;;25.12;32.12
12969;BME280;6549;53.128;8.182;2022-09-01T12:53:58;102054.63;;;24.95;33.62
12969;BME280;6549;53.128;8.182;2022-09-01T12:56:59;102049.34;;;25.53;32.37
12969;BME280;6549;53.128;8.182;2022-09-01T13:03:14;102040.81;;;25.22;30.86
12969;BME280;6549;53.128;8.182;2022-09-01T13:06:16;102046.66;;;25.49;31.62
12969;BME280;6549;53.128;8.182;2022-09-01T13:09:17;102052.78;;;25.70;31.21
12969;BME280;6549;53.128;8.182;2022-09-01T13:12:20;102039.78;;;25.72;31.66
12969;BME280;6549;53.128;8.182;2022-09-01T13:15:20;102039.13;;;25.46;31.54
12969;BME280;6549;53.128;8.182;2022-09-01T13:18:22;102029.56;;;25.87;32.21
12969;BME280;6549;53.128;8.182;2022-09-01T13:21:23;102030.38;;;25.88;30.64
12969;BME280;6549;53.128;8.182;2022-09-01T13:24:23;102034.81;;;26.07;31.75
12969;BME280;6549;53.128;8.182;2022-09-01T13:27:24;102035.47;;;25.80;31.15
12969;BME280;6549;53.128;8.182;2022-09-01T13:30:24;102023.47;;;25.24;31.67
12969;BME280;6549;53.128;8.182;2022-09-01T13:33:27;102017.25;;;25.07;31.62
12969;BME280;6549;53.128;8.182;2022-09-01T13:36:27;102022.47;;;24.96;31.41
12969;BME280;6549;53.128;8.182;2022-09-01T13:39:28;102011.78;;;24.91;31.89
12969;BME280;6549;53.128;8.182;2022-09-01T13:42:28;102019.25;;;24.59;32.51
12969;BME280;6549;53.128;8.182;2022-09-01T13:45:28;102018.38;;;24.97;32.39
12969;BME280;6549;53.128;8.182;2022-09-01T13:48:29;102010.22;;;24.77;31.15
12969;BME280;6549;53.128;8.182;2022-09-01T13:51:29;102002.53;;;24.56;31.36
12969;BME280;6549;53.128;8.182;2022-09-01T13:54:30;102002.94;;;24.04;32.63
12969;BME280;6549;53.128;8.182;2022-09-01T13:57:30;101989.47;;;23.99;31.54
12969;BME280;6549;53.128;8.182;2022-09-01T14:00:33;101979.56;;;23.82;32.24
12969;BME280;6549;53.128;8.182;2022-09-01T14:03:35;101984.09;;;23.92;32.90
12969;BME280;6549;53.128;8.182;2022-09-01T14:06:39;101977.88;;;24.60;32.53
12969;BME280;6549;53.128;8.182;2022-09-01T14:09:40;101989.31;;;24.78;31.60
12969;BME280;6549;53.128;8.182;2022-09-01T14:12:41;101985.72;;;24.65;31.30
12969;BME280;6549;53.128;8.182;2022-09-01T14:15:41;101982.88;;;24.18;32.23
12969;BME280;6549;53.128;8.182;2022-09-01T14:18:43;101981.28;;;24.42;31.88
12969;BME280;6549;53.128;8.182;2022-09-01T14:21:43;101979.00;;;24.63;31.82
12969;BME280;6549;53.128;8.182;2022-09-01T14:24:43;101977.13;;;24.34;33.32
12969;BME280;6549;53.128;8.182;2022-09-01T14:27:44;101970.28;;;23.97;32.60
12969;BME280;6549;53.128;8.182;2022-09-01T14:30:45;101963.06;;;24.34;32.01
12969;BME280;6549;53.128;8.182;2022-09-01T14:33:45;101965.28;;;24.52;31.08
12969;BME280;6549;53.128;8.182;2022-09-01T14:36:45;101964.03;;;24.66;30.82
12969;BME280;6549;53.128;8.182;2022-09-01T14:39:54;101963.78;;;24.38;31.69
12969;BME280;6549;53.128;8.182;2022-09-01T14:42:55;101953.88;;;24.46;31.38
12969;BME280;6549;53.128;8.182;2022-09-01T14:46:06;101965.31;;;24.39;31.30
12969;BME280;6549;53.128;8.182;2022-09-01T14:49:08;101949.03;;;23.96;31.58
12969;BME280;6549;53.128;8.182;2022-09-01T14:52:10;101954.66;;;24.34;31.42
12969;BME280;6549;53.128;8.182;2022-09-01T14:55:13;101939.34;;;24.48;31.11
12969;BME280;6549;53.128;8.182;2022-09-01T14:58:14;101955.03;;;24.24;31.45
12969;BME280;6549;53.128;8.182;2022-09-01T15:01:19;101947.69;;;24.26;31.20
12969;BME280;6549;53.128;8.182;2022-09-01T15:04:24;101944.19;;;24.35;31.00
12969;BME280;6549;53.128;8.182;2022-09-01T15:07:25;101943.63;;;24.40;32.61
12969;BME280;6549;53.128;8.182;2022-09-01T15:10:25;101939.94;;;24.43;31.22
12969;BME280;6549;53.128;8.182;2022-09-01T15:13:26;101925.00;;;24.33;31.04
12969;BME280;6549;53.128;8.182;2022-09-01T15:16:26;101928.59;;;24.34;30.91
12969;BME280;6549;53.128;8.182;2022-09-01T15:19:27;101929.06;;;24.32;30.87
12969;BME280;6549;53.128;8.182;2022-09-01T15:22:27;101929.06;;;24.32;31.89
12969;BME280;6549;53.128;8.182;2022-09-01T15:25:27;101916.91;;;24.35;32.48
12969;BME280;6549;53.128;8.182;2022-09-01T15:28:28;101912.31;;;24.03;32.96
12969;BME280;6549;53.128;8.182;2022-09-01T15:31:29;101909.84;;;24.05;33.01
12969;BME280;6549;53.128;8.182;2022-09-01T15:34:32;101916.22;;;24.31;32.64
12969;BME280;6549;53.128;8.182;2022-09-01T15:37:32;101914.47;;;23.87;32.45
12969;BME280;6549;53.128;8.182;2022-09-01T15:40:33;101906.47;;;23.60;33.06
12969;BME280;6549;53.128;8.182;2022-09-01T15:43:34;101906.03;;;23.74;33.03
12969;BME280;6549;53.128;8.182;2022-09-01T15:46:35;101910.63;;;23.68;33.52
12969;BME280;6549;53.128;8.182;2022-09-01T15:49:37;101912.78;;;23.89;33.19
12969;BME280;6549;53.128;8.182;2022-09-01T15:52:57;101910.56;;;23.30;33.31
12969;BME280;6549;53.128;8.182;2022-09-01T15:55:58;101904.00;;;23.49;33.89
12969;BME280;6549;53.128;8.182;2022-09-01T15:59:00;101902.38;;;23.23;34.13
12969;BME280;6549;53.128;8.182;2022-09-01T16:02:01;101902.50;;;23.32;33.07
12969;BME280;6549;53.128;8.182;2022-09-01T16:05:02;101905.84;;;23.27;34.01
12969;BME280;6549;53.128;8.182;2022-09-01T16:08:05;101903.34;;;23.45;33.98
12969;BME280;6549;53.128;8.182;2022-09-01T16:11:10;101895.34;;;23.44;33.67
12969;BME280;6549;53.128;8.182;2022-09-01T16:14:11;101894.13;;;23.45;33.23
12969;BME280;6549;53.128;8.182;2022-09-01T16:20:52;101886.72;;;23.51;32.50
12969;BME280;6549;53.128;8.182;2022-09-01T16:23:54;101879.50;;;23.37;33.00
12969;BME280;6549;53.128;8.182;2022-09-01T16:26:55;101881.97;;;23.35;32.94
12969;BME280;6549;53.128;8.182;2022-09-01T16:29:59;101876.50;;;23.44;33.08
12969;BME280;6549;53.128;8.182;2022-09-01T16:33:03;101878.38;;;23.35;33.72
12969;BME280;6549;53.128;8.182;2022-09-01T16:39:54;101868.84;;;22.91;33.97
12969;BME280;6549;53.128;8.182;2022-09-01T16:43:07;101869.78;;;22.71;34.06
12969;BME280;6549;53.128;8.182;2022-09-01T16:52:53;101864.00;;;22.62;34.40
12969;BME280;6549;53.128;8.182;2022-09-01T16:56:13;101870.13;;;22.57;34.53
12969;BME280;6549;53.128;8.182;2022-09-01T16:59:43;101875.44;;;22.39;35.09
12969;BME280;6549;53.128;8.182;2022-09-01T17:03:14;101871.97;;;22.19;35.31
12969;BME280;6549;53.128;8.182;2022-09-01T17:06:29;101863.47;;;21.90;36.20
12969;BME280;6549;53.128;8.182;2022-09-01T17:12:41;101868.38;;;21.86;36.93
12969;BME280;6549;53.128;8.182;2022-09-01T17:15:59;101866.09;;;21.97;36.28
12969;BME280;6549;53.128;8.182;2022-09-01T17:19:08;101863.56;;;22.03;36.34